Time;durP1;ratioP1;P1;durP2;ratioP2;P2;SDS_P1;SDS_P2;PMS_P1;PMS_P2;Temp;Humidity;BMP_temperature;BMP_pressure;BME280_temperature;BME280_humidity;BME280_pressure;Samples;Min_cycle;Max_cycle;Signal;HPM_P1;HPM_P2
2021/04/19 00:08:56;;;;;;;36.50;31.53;;;;;;;9.60;100.00;100724.47;20721491;28;20227;-53
2021/04/19 00:18:56;;;;;;;39.70;31.90;;;;;;;9.38;100.00;100707.94;20724030;28;20215;-58
2021/04/19 00:28:57;;;;;;;35.33;28.70;;;;;;;9.19;100.00;100701.84;20712886;28;20235;-60
2021/04/19 00:38:57;;;;;;;33.73;28.50;;;;;;;9.08;100.00;100699.72;20715501;28;20304;-55
2021/04/19 00:48:58;;;;;;;35.43;28.40;;;;;;;8.90;100.00;100703.34;20704322;28;20229;-54
2021/04/19 00:58:59;;;;;;;28.77;23.43;;;;;;;8.70;100.00;100715.00;20719763;28;20237;-61
2021/04/19 01:08:59;;;;;;;35.97;25.80;;;;;;;8.55;100.00;100715.78;20699933;28;20234;-53
2021/04/19 01:19:00;;;;;;;36.33;24.37;;;;;;;8.37;100.00;100717.53;20720191;28;20325;-53
2021/04/19 01:29:00;;;;;;;29.27;21.87;;;;;;;8.11;100.00;100716.09;20701825;28;20585;-72
2021/04/19 01:39:01;;;;;;;36.22;25.77;;;;;;;7.89;100.00;100710.06;20730855;28;20250;-59
2021/04/19 01:49:01;;;;;;;34.37;24.47;;;;;;;7.71;100.00;100713.59;20728576;28;20240;-67
2021/04/19 01:59:04;;;;;;;41.40;28.00;;;;;;;7.14;100.00;100709.97;20726502;28;20305;-54
2021/04/19 02:09:09;;;;;;;51.27;30.57;;;;;;;7.12;100.00;100710.06;20724733;28;20240;-62
2021/04/19 02:19:39;;;;;;;159.33;27.97;;;;;;;7.06;100.00;100701.47;20719023;28;20233;-53
2021/04/19 02:29:41;;;;;;;76.53;22.57;;;;;;;6.78;100.00;100662.88;20729798;28;20263;-57
2021/04/19 02:39:45;;;;;;;39.57;21.20;;;;;;;6.96;100.00;100705.47;20669708;28;20233;-60
2021/04/19 02:49:46;;;;;;;55.60;21.77;;;;;;;6.74;100.00;100703.75;20728452;28;20249;-58
2021/04/19 02:59:47;;;;;;;22.63;17.90;;;;;;;6.54;100.00;100697.53;20706744;28;20681;-59
2021/04/19 03:09:58;;;;;;;38.37;18.60;;;;;;;6.42;100.00;100706.84;20685217;28;20221;-60
2021/04/19 03:20:03;;;;;;;73.77;20.37;;;;;;;6.26;100.00;100703.13;20644150;28;20346;-59
2021/04/19 03:30:05;;;;;;;36.97;18.33;;;;;;;6.31;100.00;100703.78;20723633;28;20228;-59
2021/04/19 03:40:34;;;;;;;43.97;22.60;;;;;;;6.30;100.00;100721.47;20712513;28;20256;-54
2021/04/19 03:50:41;;;;;;;26.10;20.20;;;;;;;6.28;100.00;100714.53;20721792;28;20358;-57
2021/04/19 04:00:42;;;;;;;27.33;20.83;;;;;;;6.39;100.00;100714.94;20687763;28;20232;-57
2021/04/19 04:10:45;;;;;;;23.87;17.23;;;;;;;6.69;100.00;100721.63;20626160;28;20232;-54
2021/04/19 04:20:47;;;;;;;26.60;21.83;;;;;;;6.95;100.00;100727.63;20639219;28;20221;-55
2021/04/19 04:30:47;;;;;;;29.03;23.47;;;;;;;7.21;100.00;100732.66;20620806;28;20244;-53
2021/04/19 04:40:48;;;;;;;40.53;28.53;;;;;;;7.42;100.00;100730.84;20694969;28;20229;-53
2021/04/19 04:51:09;;;;;;;27.50;23.37;;;;;;;8.00;100.00;100718.41;20700831;28;20224;-58
2021/04/19 05:01:17;;;;;;;33.80;27.57;;;;;;;8.79;100.00;100719.00;20720171;28;20599;-53
2021/04/19 05:11:18;;;;;;;28.23;24.50;;;;;;;9.13;100.00;100729.66;20702412;28;20233;-58
2021/04/19 05:21:19;;;;;;;34.63;29.43;;;;;;;9.35;100.00;100742.72;20704677;28;20281;-55
2021/04/19 05:31:20;;;;;;;29.97;26.60;;;;;;;9.74;100.00;100742.41;20689885;28;20237;-59
2021/04/19 05:41:27;;;;;;;30.77;27.47;;;;;;;10.09;100.00;100737.78;20728556;28;20493;-53
2021/04/19 05:51:34;;;;;;;26.30;22.80;;;;;;;10.76;100.00;100733.97;20700834;28;20244;-60
2021/04/19 06:01:38;;;;;;;27.70;24.77;;;;;;;11.04;100.00;100742.09;20692190;28;20227;-59
2021/04/19 06:11:46;;;;;;;27.37;24.57;;;;;;;10.96;100.00;100741.69;20713950;28;20232;-55
2021/04/19 06:21:47;;;;;;;28.87;25.83;;;;;;;11.07;100.00;100733.91;20707834;28;20228;-66
2021/04/19 06:31:49;;;;;;;28.47;25.57;;;;;;;11.30;100.00;100745.00;20726131;28;20331;-67
2021/04/19 06:41:57;;;;;;;27.60;24.83;;;;;;;11.57;100.00;100729.09;20712126;28;20248;-65
2021/04/19 06:51:57;;;;;;;26.10;23.67;;;;;;;11.42;100.00;100730.91;20711129;28;20274;-57
2021/04/19 07:01:59;;;;;;;27.40;24.73;;;;;;;11.78;100.00;100719.78;20670450;28;20225;-59
2021/04/19 07:12:05;;;;;;;23.77;21.27;;;;;;;12.13;100.00;100717.53;20672737;28;21025;-55
2021/04/19 07:22:06;;;;;;;25.00;22.67;;;;;;;12.43;100.00;100718.22;20680560;28;20293;-62
2021/04/19 07:32:06;;;;;;;22.43;20.23;;;;;;;12.82;100.00;100709.34;20667833;28;20235;-55
2021/04/19 07:42:09;;;;;;;20.23;18.27;;;;;;;13.14;100.00;100704.53;20683143;28;20236;-55
2021/04/19 07:52:16;;;;;;;19.03;17.33;;;;;;;13.51;100.00;100713.56;20664146;28;20710;-59
2021/04/19 08:02:19;;;;;;;16.67;14.97;;;;;;;14.14;100.00;100701.84;20685800;28;20234;-55
2021/04/19 08:12:31;;;;;;;14.20;12.90;;;;;;;14.59;99.78;100713.75;20665737;28;20229;-60
2021/04/19 08:22:39;;;;;;;13.43;12.13;;;;;;;14.81;100.00;100713.00;20677971;28;20262;-55
2021/04/19 08:32:39;;;;;;;14.80;13.50;;;;;;;14.95;97.07;100714.63;20674815;28;20228;-56
2021/04/19 08:42:40;;;;;;;18.63;16.73;;;;;;;15.28;90.88;100709.34;20665234;28;20237;-60
2021/04/19 08:52:41;;;;;;;17.03;15.53;;;;;;;15.68;91.40;100715.19;20675841;28;20233;-61
2021/04/19 09:02:42;;;;;;;15.33;13.80;;;;;;;16.01;90.57;100706.25;20679686;28;20232;-56
2021/04/19 09:12:43;;;;;;;14.90;13.40;;;;;;;16.33;89.79;100702.75;20659417;28;22228;-57
2021/04/19 09:22:44;;;;;;;11.37;10.33;;;;;;;16.44;84.35;100697.34;20662671;28;20688;-55
2021/04/19 09:32:45;;;;;;;11.43;10.33;;;;;;;16.43;76.14;100691.09;20654161;28;20310;-56
2021/04/19 09:42:56;;;;;;;9.67;8.87;;;;;;;16.54;73.83;100692.94;20667611;28;20314;-56
2021/04/19 09:52:56;;;;;;;9.90;8.90;;;;;;;16.98;70.55;100680.25;20657336;28;21025;-62
2021/04/19 10:02:57;;;;;;;8.77;7.70;;;;;;;17.33;71.55;100685.31;20701325;28;20323;-67
2021/04/19 10:12:57;;;;;;;8.37;7.67;;;;;;;17.39;72.63;100680.22;20713019;28;20233;-71
2021/04/19 10:23:11;;;;;;;8.90;7.30;;;;;;;17.38;63.31;100677.69;20725719;28;20228;-58
2021/04/19 10:33:12;;;;;;;7.90;7.10;;;;;;;17.32;70.40;100673.66;20717654;28;20336;-74
2021/04/19 10:43:12;;;;;;;7.83;7.17;;;;;;;17.20;67.10;100666.63;20720133;28;20259;-56
2021/04/19 10:53:37;;;;;;;7.80;6.93;;;;;;;17.42;53.82;100662.94;20724733;28;20955;-65
2021/04/19 11:03:38;;;;;;;9.77;6.87;;;;;;;17.95;56.65;100659.06;20711267;28;20217;-53
2021/04/19 11:13:38;;;;;;;10.30;6.87;;;;;;;18.06;58.24;100662.66;20727112;28;20225;-56
2021/04/19 11:23:39;;;;;;;6.57;5.90;;;;;;;18.33;55.40;100652.91;20707143;28;20249;-62
2021/04/19 11:33:39;;;;;;;5.97;5.30;;;;;;;18.35;53.72;100642.78;20725435;28;20221;-52
2021/04/19 11:43:51;;;;;;;6.87;5.00;;;;;;;17.91;48.97;100651.38;20705246;28;20229;-59
2021/04/19 11:53:51;;;;;;;5.10;4.70;;;;;;;17.86;56.81;100646.41;20724542;28;20232;-58
2021/04/19 12:03:52;;;;;;;6.15;5.00;;;;;;;17.69;47.21;100643.50;20710306;28;20272;-57
2021/04/19 12:13:59;;;;;;;5.40;4.90;;;;;;;17.84;52.57;100626.78;20717578;28;20308;-60
2021/04/19 12:24:00;;;;;;;5.33;4.70;;;;;;;17.69;50.57;100632.69;20715525;28;20953;-56
2021/04/19 12:34:01;;;;;;;5.67;4.73;;;;;;;17.84;49.92;100617.84;20709780;28;20509;-55
2021/04/19 12:44:03;;;;;;;5.47;4.90;;;;;;;17.77;47.16;100620.22;20720737;28;20229;-72
2021/04/19 12:54:03;;;;;;;6.37;5.77;;;;;;;18.26;48.46;100611.22;20698430;28;20231;-54
2021/04/19 13:04:04;;;;;;;5.07;4.57;;;;;;;18.22;53.04;100609.81;20720677;28;20220;-53
2021/04/19 13:14:05;;;;;;;6.17;4.87;;;;;;;17.99;51.42;100600.25;20677246;28;20276;-61
2021/04/19 13:24:07;;;;;;;5.10;4.60;;;;;;;18.04;45.88;100581.75;20676080;28;20297;-54
2021/04/19 13:34:08;;;;;;;6.30;4.60;;;;;;;18.10;43.25;100551.50;20673760;28;20312;-76
2021/04/19 13:44:08;;;;;;;5.27;4.83;;;;;;;18.44;48.57;100570.84;20686362;28;20251;-57
2021/04/19 13:54:09;;;;;;;5.70;4.20;;;;;;;18.18;51.90;100575.97;20676081;28;20815;-58
2021/04/19 14:04:10;;;;;;;6.03;4.63;;;;;;;17.51;47.74;100575.78;20689398;28;20239;-61
2021/04/19 14:14:10;;;;;;;5.60;4.57;;;;;;;17.01;45.65;100570.31;20683006;28;21243;-65
2021/04/19 14:24:11;;;;;;;18.93;13.53;;;;;;;17.06;47.64;100559.97;20667162;28;20229;-74
2021/04/19 14:34:12;;;;;;;9.63;8.60;;;;;;;17.09;47.56;100545.38;20682745;28;20229;-53
2021/04/19 14:44:15;;;;;;;4.60;4.20;;;;;;;17.11;47.61;100546.09;20661575;28;20634;-60
2021/04/19 14:54:16;;;;;;;6.47;4.50;;;;;;;17.11;47.70;100546.09;20682417;28;20237;-54
2021/04/19 15:04:16;;;;;;;5.40;3.90;;;;;;;16.90;51.23;100555.03;20666265;28;20347;-55
2021/04/19 15:14:18;;;;;;;3.87;3.57;;;;;;;16.79;53.91;100557.81;20676301;28;20932;-55
2021/04/19 15:24:18;;;;;;;4.60;4.07;;;;;;;16.73;47.10;100558.38;20671852;28;20235;-66
2021/04/19 15:34:19;;;;;;;5.37;4.87;;;;;;;16.70;49.93;100553.22;20666482;28;21335;-69
2021/04/19 15:44:20;;;;;;;4.43;4.03;;;;;;;16.53;48.83;100540.34;20674609;28;20479;-57
2021/04/19 15:54:21;;;;;;;4.37;3.70;;;;;;;16.18;49.45;100546.84;20655349;28;20953;-60
2021/04/19 16:04:21;;;;;;;3.10;2.80;;;;;;;15.98;52.43;100539.59;20675651;28;20322;-57
2021/04/19 16:14:22;;;;;;;3.57;3.27;;;;;;;15.79;53.83;100539.41;20655990;28;20601;-59
2021/04/19 16:24:22;;;;;;;3.60;3.30;;;;;;;15.61;51.82;100530.16;20690460;28;20575;-54
2021/04/19 16:34:24;;;;;;;3.90;3.50;;;;;;;15.36;51.63;100542.88;20677869;28;20970;-54
2021/04/19 16:44:31;;;;;;;3.63;3.30;;;;;;;15.24;53.67;100538.47;20662387;28;20242;-62
2021/04/19 16:54:32;;;;;;;4.03;3.67;;;;;;;15.09;57.78;100531.66;20660801;28;20296;-55
2021/04/19 17:04:32;;;;;;;3.57;3.27;;;;;;;14.84;63.34;100545.31;20668756;28;20238;-57
2021/04/19 17:14:33;;;;;;;3.83;3.40;;;;;;;14.66;61.97;100542.22;20671630;28;20235;-54
2021/04/19 17:24:34;;;;;;;5.00;4.20;;;;;;;14.47;62.29;100537.44;20655420;28;20254;-54
2021/04/19 17:34:35;;;;;;;3.57;3.27;;;;;;;14.02;66.42;100537.22;20671734;28;20246;-53
2021/04/19 17:44:36;;;;;;;6.07;4.10;;;;;;;13.47;65.48;100550.31;20656916;28;20705;-54
2021/04/19 17:54:37;;;;;;;16.50;5.83;;;;;;;12.98;66.38;100538.59;20667365;28;20229;-61
2021/04/19 18:04:51;;;;;;;8.10;5.30;;;;;;;12.55;67.50;100543.41;20653021;28;20344;-54
2021/04/19 18:14:52;;;;;;;10.07;8.57;;;;;;;12.27;71.36;100554.28;20675476;28;20267;-53
2021/04/19 18:24:53;;;;;;;13.60;11.10;;;;;;;11.76;73.72;100548.75;20673893;28;20221;-60
2021/04/19 18:34:54;;;;;;;5.63;5.13;;;;;;;11.37;77.16;100554.81;20674632;28;20237;-56
2021/04/19 18:44:54;;;;;;;4.63;3.87;;;;;;;11.09;76.29;100549.53;20677939;28;20291;-54
2021/04/19 18:54:56;;;;;;;8.97;6.77;;;;;;;11.07;73.50;100567.44;20666353;28;20241;-54
2021/04/19 19:04:57;;;;;;;8.40;6.70;;;;;;;10.85;75.11;100578.59;20678495;28;20521;-52
2021/04/19 19:14:57;;;;;;;9.37;7.50;;;;;;;10.45;78.91;100570.34;20659852;28;20227;-54
2021/04/19 19:24:58;;;;;;;10.90;8.30;;;;;;;10.11;79.75;100559.91;20677772;28;20255;-62
2021/04/19 19:34:58;;;;;;;8.93;8.00;;;;;;;9.98;79.48;100566.91;20662867;28;20229;-56
2021/04/19 19:44:59;;;;;;;11.93;9.07;;;;;;;10.07;80.10;100569.03;20674727;28;20240;-73
2021/04/19 19:55:00;;;;;;;11.30;9.10;;;;;;;10.04;80.31;100556.72;20666336;28;20875;-56
2021/04/19 20:05:01;;;;;;;11.17;8.30;;;;;;;9.89;80.00;100554.13;20670013;28;20467;-55
2021/04/19 20:15:03;;;;;;;10.70;9.37;;;;;;;9.73;81.88;100536.31;20669238;28;20975;-58
2021/04/19 20:25:04;;;;;;;10.70;9.50;;;;;;;9.50;87.41;100542.09;20659191;28;20398;-59
2021/04/19 20:35:05;;;;;;;15.30;12.53;;;;;;;9.11;91.90;100544.31;20651821;28;20228;-56
2021/04/19 20:45:07;;;;;;;11.97;10.73;;;;;;;8.74;94.77;100546.28;20619826;28;20686;-57
2021/04/19 20:55:15;;;;;;;10.80;9.70;;;;;;;8.56;91.97;100547.28;20640369;28;20234;-64
2021/04/19 21:05:17;;;;;;;11.87;9.10;;;;;;;8.34;87.94;100536.00;20620539;28;20703;-71
2021/04/19 21:15:18;;;;;;;11.33;7.80;;;;;;;8.15;89.46;100528.94;20654681;28;20317;-59
2021/04/19 21:25:19;;;;;;;7.30;6.60;;;;;;;8.02;92.23;100535.81;20650521;28;20321;-61
2021/04/19 21:35:19;;;;;;;7.83;7.03;;;;;;;8.10;93.53;100528.31;20670741;28;20283;-53
2021/04/19 21:45:20;;;;;;;7.55;6.82;;;;;;;8.14;92.87;100535.19;20699883;28;20230;-53
2021/04/19 21:55:20;;;;;;;8.10;7.07;;;;;;;8.02;94.78;100543.78;20735296;28;20320;-59
2021/04/19 22:05:21;;;;;;;7.40;6.70;;;;;;;8.02;98.44;100537.63;20647894;28;20261;-54
2021/04/19 22:15:21;;;;;;;14.00;10.00;;;;;;;7.94;100.00;100538.88;20652105;28;20460;-52
2021/04/19 22:25:26;;;;;;;28.70;18.27;;;;;;;8.02;100.00;100538.47;20631163;28;20456;-59
2021/04/19 22:35:28;;;;;;;18.70;14.40;;;;;;;8.12;100.00;100534.41;20642744;28;20226;-53
2021/04/19 22:45:32;;;;;;;23.70;16.73;;;;;;;8.21;100.00;100523.31;20642625;28;20707;-61
2021/04/19 22:55:39;;;;;;;15.80;13.17;;;;;;;8.40;100.00;100523.25;20635663;28;20234;-53
2021/04/19 23:05:40;;;;;;;18.17;12.80;;;;;;;8.40;98.75;100503.78;20648430;28;20234;-54
2021/04/19 23:15:40;;;;;;;16.93;11.70;;;;;;;8.44;98.43;100502.69;20627986;28;20242;-58
2021/04/19 23:25:41;;;;;;;14.23;11.40;;;;;;;8.42;96.32;100507.22;20652724;28;21185;-53
2021/04/19 23:35:41;;;;;;;14.40;11.27;;;;;;;8.25;96.08;100497.44;20627081;28;20226;-61
2021/04/19 23:45:41;;;;;;;11.43;9.50;;;;;;;7.95;99.09;100489.25;20644001;28;20235;-55
2021/04/19 23:55:42;;;;;;;13.17;10.70;;;;;;;7.69;100.00;100489.69;20631207;28;20237;-63
